createdAt,value
2022-08-14T00:01:54.397Z,3.85
2022-08-14T00:04:35.280Z,3.88
2022-08-14T00:07:11.511Z,3.83
2022-08-14T00:09:55.741Z,3.88
2022-08-14T00:12:33.997Z,4.03
2022-08-14T00:15:22.794Z,3.80
2022-08-14T00:17:53.073Z,4.05
2022-08-14T00:20:31.027Z,3.97
2022-08-14T00:23:16.350Z,4.10
2022-08-14T00:25:54.052Z,3.70
2022-08-14T00:28:35.584Z,3.65
2022-08-14T00:31:05.604Z,3.95
2022-08-14T00:33:52.211Z,4.07
2022-08-14T00:36:36.386Z,4.38
2022-08-14T00:39:18.314Z,4.15
2022-08-14T00:41:47.002Z,4.00
2022-08-14T00:44:14.748Z,4.03
2022-08-14T00:46:49.472Z,4.00
2022-08-14T00:49:17.877Z,4.18
2022-08-14T00:51:48.295Z,3.58
2022-08-14T00:54:21.239Z,4.30
2022-08-14T00:56:55.615Z,4.30
2022-08-14T00:59:25.711Z,3.83
2022-08-14T01:01:56.204Z,4.97
2022-08-14T01:04:37.650Z,4.25
2022-08-14T01:07:11.820Z,4.03
2022-08-14T01:09:41.521Z,4.40
2022-08-14T01:12:09.361Z,4.43
2022-08-14T01:14:38.234Z,4.22
2022-08-14T01:17:08.764Z,4.80
2022-08-14T01:19:54.893Z,4.50
2022-08-14T01:22:51.284Z,4.78
2022-08-14T01:25:20.334Z,4.60
2022-08-14T01:27:57.316Z,4.72
2022-08-14T01:30:27.403Z,4.60
2022-08-14T01:32:54.510Z,4.75
2022-08-14T01:36:03.760Z,4.68
2022-08-14T01:38:10.341Z,4.93
2022-08-14T01:40:41.985Z,5.07
2022-08-14T01:43:18.953Z,4.30
2022-08-14T01:45:57.604Z,5.05
2022-08-14T01:48:37.476Z,5.40
2022-08-14T01:51:19.551Z,5.03
2022-08-14T01:53:54.686Z,5.32
2022-08-14T01:56:39.732Z,4.95
2022-08-14T01:59:20.921Z,4.78
2022-08-14T02:01:57.862Z,5.10
2022-08-14T02:04:55.006Z,5.88
2022-08-14T02:07:34.162Z,4.88
2022-08-14T02:10:07.060Z,5.28
2022-08-14T02:12:34.727Z,4.45
2022-08-14T02:15:03.045Z,5.38
2022-08-14T02:17:33.371Z,5.63
2022-08-14T02:20:00.969Z,5.68
2022-08-14T02:22:33.169Z,4.50
2022-08-14T02:25:01.489Z,5.00
2022-08-14T02:28:24.454Z,5.60
2022-08-14T02:30:16.483Z,5.63
2022-08-14T02:32:45.771Z,5.65
2022-08-14T02:35:21.958Z,5.70
2022-08-14T02:37:53.535Z,5.25
2022-08-14T02:40:32.530Z,6.40
2022-08-14T02:43:02.754Z,5.65
2022-08-14T02:45:38.615Z,5.38
2022-08-14T02:49:02.726Z,4.90
2022-08-14T02:51:01.296Z,5.47
2022-08-14T02:53:29.900Z,5.40
2022-08-14T02:56:30.319Z,5.47
2022-08-14T02:59:08.198Z,5.25
2022-08-14T03:01:43.803Z,5.38
2022-08-14T03:04:17.712Z,5.60
2022-08-14T03:06:57.877Z,5.60
2022-08-14T03:09:42.380Z,5.53
2022-08-14T03:12:31.518Z,5.72
2022-08-14T03:15:03.047Z,4.93
2022-08-14T03:17:32.076Z,5.50
2022-08-14T03:20:11.946Z,5.25
2022-08-14T03:22:42.140Z,5.32
2022-08-14T03:25:11.361Z,6.18
2022-08-14T03:27:47.779Z,5.70
2022-08-14T03:30:15.773Z,5.65
2022-08-14T03:32:51.470Z,5.13
2022-08-14T03:35:19.697Z,5.35
2022-08-14T03:39:10.905Z,5.82
2022-08-14T03:40:34.227Z,4.95
2022-08-14T03:43:05.607Z,5.45
2022-08-14T03:45:35.718Z,5.88
2022-08-14T03:48:30.237Z,5.45
2022-08-14T03:50:59.640Z,5.95
2022-08-14T03:53:28.621Z,6.28
2022-08-14T03:55:58.965Z,6.60
2022-08-14T03:58:36.260Z,6.28
2022-08-14T04:01:06.558Z,6.70
2022-08-14T04:03:37.211Z,6.57
2022-08-14T04:06:05.745Z,6.03
2022-08-14T04:08:37.430Z,6.88
2022-08-14T04:11:08.041Z,6.15
2022-08-14T04:13:42.564Z,5.90
2022-08-14T04:16:13.081Z,6.20
2022-08-14T04:18:45.733Z,6.47
2022-08-14T04:23:42.709Z,6.07
2022-08-14T04:26:14.791Z,6.10
2022-08-14T04:29:07.484Z,5.40
2022-08-14T04:33:10.490Z,6.13
2022-08-14T04:34:24.012Z,5.93
2022-08-14T04:37:21.903Z,6.32
2022-08-14T04:40:08.809Z,6.13
2022-08-14T04:42:55.414Z,6.32
2022-08-14T04:45:24.893Z,6.40
2022-08-14T04:48:12.657Z,6.18
2022-08-14T04:50:53.973Z,6.20
2022-08-14T04:53:34.883Z,6.47
2022-08-14T04:56:03.798Z,6.45
2022-08-14T04:58:35.273Z,6.55
2022-08-14T05:01:22.144Z,6.50
2022-08-14T05:03:49.616Z,6.55
2022-08-14T05:06:38.273Z,6.07
2022-08-14T05:09:06.542Z,6.72
2022-08-14T05:11:36.639Z,7.18
2022-08-14T05:14:43.411Z,7.22
2022-08-14T05:16:52.495Z,7.15
2022-08-14T05:19:29.092Z,6.93
2022-08-14T05:22:17.081Z,6.85
2022-08-14T05:24:51.296Z,6.88
2022-08-14T05:27:23.004Z,7.13
2022-08-14T05:29:52.994Z,6.50
2022-08-14T05:32:20.434Z,7.10
2022-08-14T05:34:47.957Z,7.53
2022-08-14T05:37:15.451Z,7.05
2022-08-14T05:39:43.677Z,8.02
2022-08-14T05:42:22.268Z,7.32
2022-08-14T05:44:55.428Z,7.45
2022-08-14T05:47:23.812Z,7.35
2022-08-14T05:49:51.676Z,8.15
2022-08-14T05:52:26.360Z,6.55
2022-08-14T05:55:08.464Z,6.50
2022-08-14T05:57:48.987Z,6.78
2022-08-14T06:00:24.362Z,7.03
2022-08-14T06:02:52.211Z,6.75
2022-08-14T06:05:23.389Z,7.13
2022-08-14T06:07:50.944Z,6.95
2022-08-14T06:10:19.043Z,7.18
2022-08-14T06:12:55.715Z,6.32
2022-08-14T06:15:29.687Z,7.18
2022-08-14T06:17:58.919Z,6.00
2022-08-14T06:20:28.611Z,6.30
2022-08-14T06:22:57.880Z,6.43
2022-08-14T06:25:27.022Z,6.72
2022-08-14T06:27:55.814Z,6.13
2022-08-14T06:30:30.458Z,5.70
2022-08-14T06:33:15.746Z,6.15
2022-08-14T06:35:43.781Z,5.88
2022-08-14T06:38:19.129Z,6.30
2022-08-14T06:40:47.727Z,5.00
2022-08-14T06:43:16.962Z,5.93
2022-08-14T06:45:50.231Z,5.43
2022-08-14T06:48:23.872Z,5.00
2022-08-14T06:50:53.890Z,3.92
2022-08-14T06:53:22.236Z,5.18
2022-08-14T06:56:00.754Z,4.47
2022-08-14T06:58:31.562Z,4.60
2022-08-14T07:01:25.019Z,5.85
2022-08-14T07:04:23.198Z,5.85
2022-08-14T07:06:54.803Z,5.43
2022-08-14T07:09:43.820Z,5.28
2022-08-14T07:12:52.034Z,5.22
2022-08-14T07:15:04.707Z,4.53
2022-08-14T07:17:34.483Z,6.03
2022-08-14T07:20:04.954Z,4.47
2022-08-14T07:22:50.125Z,4.68
2022-08-14T07:25:22.418Z,5.45
2022-08-14T07:28:00.675Z,5.03
2022-08-14T07:30:33.896Z,4.53
2022-08-14T07:33:03.503Z,4.88
2022-08-14T07:35:43.051Z,4.72
2022-08-14T07:38:21.484Z,5.28
2022-08-14T07:40:53.060Z,4.97
2022-08-14T07:43:21.736Z,4.88
2022-08-14T07:45:50.791Z,4.28
2022-08-14T07:48:18.011Z,4.88
2022-08-14T07:50:52.055Z,4.93
2022-08-14T07:53:19.753Z,4.45
2022-08-14T07:55:47.225Z,4.28
2022-08-14T07:58:38.808Z,4.93
2022-08-14T08:01:19.172Z,4.30
2022-08-14T08:03:47.771Z,4.70
2022-08-14T08:06:19.007Z,4.88
2022-08-14T08:09:01.087Z,3.78
2022-08-14T08:11:37.423Z,4.38
2022-08-14T08:14:10.820Z,3.92
2022-08-14T08:16:46.394Z,4.13
2022-08-14T08:19:14.337Z,4.57
2022-08-14T08:21:43.536Z,4.45
2022-08-14T08:24:11.160Z,4.30
2022-08-14T08:26:39.675Z,4.35
2022-08-14T08:29:07.931Z,3.88
2022-08-14T08:31:48.926Z,3.65
2022-08-14T08:34:20.791Z,3.97
2022-08-14T08:36:51.685Z,3.17
2022-08-14T08:39:21.880Z,3.70
2022-08-14T08:41:50.747Z,4.18
2022-08-14T08:44:31.649Z,4.10
2022-08-14T08:47:06.458Z,3.67
2022-08-14T08:49:48.302Z,3.55
2022-08-14T08:52:29.105Z,4.07
2022-08-14T08:55:00.732Z,3.83
2022-08-14T08:57:35.809Z,3.42
2022-08-14T09:00:25.393Z,3.50
2022-08-14T09:03:04.068Z,3.80
2022-08-14T09:05:33.341Z,3.30
2022-08-14T09:08:31.491Z,3.75
2022-08-14T09:11:19.233Z,3.58
2022-08-14T09:13:51.440Z,3.40
2022-08-14T09:16:21.160Z,3.75
2022-08-14T09:18:48.923Z,4.10
2022-08-14T09:21:16.475Z,3.83
2022-08-14T09:24:26.299Z,3.85
2022-08-14T09:26:32.584Z,3.40
2022-08-14T09:29:00.589Z,4.03
2022-08-14T09:31:42.529Z,3.55
2022-08-14T09:34:58.285Z,3.15
2022-08-14T09:38:00.153Z,3.33
2022-08-14T09:40:59.083Z,3.33
2022-08-14T09:43:51.196Z,3.00
2022-08-14T09:46:21.206Z,3.50
2022-08-14T09:48:58.835Z,2.90
2022-08-14T09:51:32.996Z,3.03
2022-08-14T09:54:18.400Z,2.95
2022-08-14T09:56:56.957Z,2.30
2022-08-14T09:59:28.425Z,2.63
2022-08-14T10:02:01.064Z,2.80
2022-08-14T10:04:34.624Z,3.25
2022-08-14T10:07:05.234Z,2.70
2022-08-14T10:09:34.615Z,3.08
2022-08-14T10:12:04.795Z,2.78
2022-08-14T10:14:36.648Z,2.70
2022-08-14T10:17:08.716Z,2.03
2022-08-14T10:19:48.087Z,2.45
2022-08-14T10:23:15.110Z,2.70
2022-08-14T10:25:14.120Z,2.50
2022-08-14T10:27:46.439Z,2.50
2022-08-14T10:30:22.407Z,2.55
2022-08-14T10:32:52.444Z,2.25
2022-08-14T10:35:23.059Z,2.15
2022-08-14T10:37:52.481Z,2.72
2022-08-14T10:40:43.434Z,2.50
2022-08-14T10:43:24.069Z,2.40
2022-08-14T10:46:59.058Z,2.92
2022-08-14T10:49:02.617Z,3.03
2022-08-14T10:51:35.300Z,2.70
2022-08-14T10:54:17.011Z,2.78
2022-08-14T10:56:57.224Z,2.97
2022-08-14T10:59:30.780Z,2.55
2022-08-14T11:02:03.381Z,2.78
2022-08-14T11:04:31.258Z,2.60
2022-08-14T11:06:59.172Z,2.90
2022-08-14T11:09:31.723Z,2.72
2022-08-14T11:12:33.103Z,2.90
2022-08-14T11:15:02.155Z,2.47
2022-08-14T11:17:36.031Z,2.60
2022-08-14T11:20:07.075Z,2.50
2022-08-14T11:22:56.320Z,2.63
2022-08-14T11:25:43.521Z,3.20
2022-08-14T11:28:19.053Z,2.33
2022-08-14T11:30:54.213Z,2.30
2022-08-14T11:33:24.453Z,2.33
2022-08-14T11:35:51.884Z,2.42
2022-08-14T11:38:21.621Z,2.25
2022-08-14T11:40:48.905Z,1.80
2022-08-14T11:43:16.339Z,2.15
2022-08-14T11:45:48.514Z,2.45
2022-08-14T11:49:02.294Z,1.90
2022-08-14T11:51:14.449Z,3.05
2022-08-14T11:53:51.353Z,2.22
2022-08-14T11:56:18.698Z,2.08
2022-08-14T11:58:54.057Z,2.45
2022-08-14T12:01:28.489Z,1.98
2022-08-14T12:04:00.999Z,1.98
2022-08-14T12:06:38.394Z,2.20
2022-08-14T12:09:08.264Z,2.22
2022-08-14T12:11:43.810Z,2.03
2022-08-14T12:14:31.039Z,2.10
2022-08-14T12:17:02.165Z,1.77
2022-08-14T12:19:33.574Z,2.00
2022-08-14T12:22:02.691Z,2.45
2022-08-14T12:24:36.353Z,2.10
2022-08-14T12:27:04.390Z,2.30
2022-08-14T12:29:31.899Z,2.10
2022-08-14T12:32:03.784Z,1.67
2022-08-14T12:34:35.163Z,2.25
2022-08-14T12:37:07.953Z,2.20
2022-08-14T12:39:39.855Z,1.92
2022-08-14T12:42:08.084Z,1.90
2022-08-14T12:44:38.342Z,2.33
2022-08-14T12:47:15.143Z,2.38
2022-08-14T12:49:53.427Z,2.35
2022-08-14T12:52:47.280Z,2.53
2022-08-14T12:55:32.687Z,2.38
2022-08-14T12:58:28.832Z,2.75
2022-08-14T13:01:17.271Z,2.47
2022-08-14T13:03:51.840Z,2.45
2022-08-14T13:06:20.366Z,2.55
2022-08-14T13:08:53.317Z,2.72
2022-08-14T13:11:23.915Z,2.55
2022-08-14T13:13:58.267Z,2.45
2022-08-14T13:16:37.989Z,1.90
2022-08-14T13:19:11.655Z,1.95
2022-08-14T13:22:05.334Z,2.10
2022-08-14T13:24:27.686Z,2.10
2022-08-14T13:26:58.368Z,2.00
2022-08-14T13:29:29.735Z,2.35
2022-08-14T13:31:58.708Z,1.90
2022-08-14T13:34:28.237Z,2.60
2022-08-14T13:36:59.397Z,2.90
2022-08-14T13:39:36.302Z,1.90
2022-08-14T13:42:13.242Z,1.92
2022-08-14T13:44:42.832Z,1.45
2022-08-14T13:47:12.046Z,2.17
2022-08-14T13:49:58.137Z,2.33
2022-08-14T13:52:59.116Z,1.60
2022-08-14T13:55:17.981Z,2.13
2022-08-14T13:57:49.548Z,1.42
2022-08-14T14:00:21.777Z,1.85
2022-08-14T14:03:00.405Z,1.70
2022-08-14T14:05:53.345Z,1.88
2022-08-14T14:08:19.123Z,1.83
2022-08-14T14:11:04.051Z,1.88
2022-08-14T14:13:32.005Z,1.60
2022-08-14T14:16:02.249Z,1.55
2022-08-14T14:18:34.878Z,1.55
2022-08-14T14:21:03.116Z,1.93
2022-08-14T14:23:31.143Z,1.60
2022-08-14T14:26:00.097Z,1.80
2022-08-14T14:28:34.233Z,1.85
2022-08-14T14:31:06.078Z,2.85
2022-08-14T14:33:47.092Z,1.70
2022-08-14T14:36:20.985Z,2.10
2022-08-14T14:39:01.130Z,1.42
2022-08-14T14:41:38.088Z,1.98
2022-08-14T14:46:50.547Z,1.95
2022-08-14T14:49:21.865Z,1.90
2022-08-14T14:51:51.459Z,1.60
2022-08-14T14:54:30.313Z,1.83
2022-08-14T14:57:04.013Z,1.85
2022-08-14T14:59:37.452Z,1.58
2022-08-14T15:02:07.947Z,1.60
2022-08-14T15:04:37.977Z,1.80
2022-08-14T15:07:06.309Z,1.60
2022-08-14T15:09:34.115Z,1.73
2022-08-14T15:12:16.002Z,1.77
2022-08-14T15:14:54.948Z,1.92
2022-08-14T15:17:28.485Z,1.83
2022-08-14T15:20:07.693Z,1.40
2022-08-14T15:22:35.615Z,1.60
2022-08-14T15:25:03.093Z,1.77
2022-08-14T15:27:31.490Z,1.88
2022-08-14T15:29:59.430Z,2.17
2022-08-14T15:32:26.667Z,1.45
2022-08-14T15:34:57.894Z,1.73
2022-08-14T15:37:24.934Z,2.03
2022-08-14T15:40:00.455Z,1.40
2022-08-14T15:42:30.269Z,1.33
2022-08-14T15:45:01.267Z,1.88
2022-08-14T15:47:31.233Z,1.90
2022-08-14T15:50:01.009Z,1.48
2022-08-14T15:52:35.623Z,1.55
2022-08-14T15:55:07.957Z,1.73
2022-08-14T15:57:36.835Z,1.77
2022-08-14T16:00:40.608Z,1.55
2022-08-14T16:03:14.231Z,1.70
2022-08-14T16:05:46.027Z,1.60
2022-08-14T16:08:29.256Z,1.73
2022-08-14T16:11:03.800Z,1.70
2022-08-14T16:13:41.383Z,1.77
2022-08-14T16:16:47.218Z,1.73
2022-08-14T16:19:19.129Z,1.83
2022-08-14T16:22:02.164Z,1.42
2022-08-14T16:25:00.456Z,1.63
2022-08-14T16:27:37.051Z,1.70
2022-08-14T16:30:20.882Z,1.80
2022-08-14T16:32:55.774Z,1.42
2022-08-14T16:35:42.829Z,1.55
2022-08-14T16:38:19.702Z,1.95
2022-08-14T16:41:22.989Z,2.00
2022-08-14T16:43:54.016Z,2.47
2022-08-14T16:46:28.633Z,1.58
2022-08-14T16:48:58.744Z,1.42
2022-08-14T16:51:31.030Z,1.83
2022-08-14T16:54:34.591Z,1.63
2022-08-14T16:57:12.639Z,1.85
2022-08-14T16:59:52.304Z,2.20
2022-08-14T17:02:42.092Z,1.45
2022-08-14T17:05:26.851Z,1.88
2022-08-14T17:08:32.080Z,1.70
2022-08-14T17:11:11.922Z,2.00
2022-08-14T17:13:59.854Z,2.47
2022-08-14T17:16:37.550Z,1.70
2022-08-14T17:19:13.606Z,1.67
2022-08-14T17:21:47.407Z,1.30
2022-08-14T17:24:51.540Z,1.60
2022-08-14T17:27:07.250Z,2.00
2022-08-14T17:29:54.774Z,1.52
2022-08-14T17:32:29.750Z,1.90
2022-08-14T17:35:16.873Z,1.42
2022-08-14T17:37:46.183Z,1.77
2022-08-14T17:40:19.779Z,1.42
2022-08-14T17:42:51.613Z,1.80
2022-08-14T17:45:45.358Z,2.00
2022-08-14T17:49:14.753Z,1.88
2022-08-14T17:51:24.063Z,1.42
2022-08-14T17:54:02.363Z,2.00
2022-08-14T17:56:32.499Z,2.20
2022-08-14T17:59:05.633Z,1.60
2022-08-14T18:01:37.358Z,2.22
2022-08-14T18:04:24.524Z,2.20
2022-08-14T18:07:09.064Z,2.40
2022-08-14T18:09:58.769Z,1.83
2022-08-14T18:12:36.865Z,2.20
2022-08-14T18:15:17.479Z,1.83
2022-08-14T18:17:52.703Z,2.65
2022-08-14T18:21:24.306Z,1.80
2022-08-14T18:23:13.745Z,2.50
2022-08-14T18:25:48.229Z,2.70
2022-08-14T18:28:51.022Z,2.45
2022-08-14T18:31:21.299Z,2.33
2022-08-14T18:34:05.923Z,2.95
2022-08-14T18:36:57.033Z,2.40
2022-08-14T18:39:30.052Z,2.60
2022-08-14T18:42:23.664Z,2.55
2022-08-14T18:44:52.699Z,2.40
2022-08-14T18:47:24.261Z,2.38
2022-08-14T18:50:00.904Z,2.42
2022-08-14T18:52:39.608Z,2.40
2022-08-14T18:55:15.875Z,1.92
2022-08-14T18:57:57.980Z,2.15
2022-08-14T19:00:32.072Z,2.25
2022-08-14T19:03:04.220Z,2.60
2022-08-14T19:05:37.355Z,2.20
2022-08-14T19:08:21.982Z,2.28
2022-08-14T19:11:04.230Z,2.13
2022-08-14T19:13:48.685Z,2.30
2022-08-14T19:16:23.594Z,2.40
2022-08-14T19:19:00.581Z,2.40
2022-08-14T19:21:43.545Z,2.30
2022-08-14T19:24:27.777Z,2.20
2022-08-14T19:27:16.721Z,2.88
2022-08-14T19:29:47.884Z,2.20
2022-08-14T19:32:38.945Z,2.47
2022-08-14T19:35:49.982Z,2.50
2022-08-14T19:38:47.922Z,2.17
2022-08-14T19:41:17.760Z,2.10
2022-08-14T19:43:55.276Z,2.35
2022-08-14T19:46:39.196Z,2.33
2022-08-14T19:49:23.360Z,2.28
2022-08-14T19:52:04.443Z,2.70
2022-08-14T19:54:44.829Z,2.65
2022-08-14T19:57:30.182Z,2.67
2022-08-14T20:00:28.255Z,2.85
2022-08-14T20:03:13.522Z,2.40
2022-08-14T20:05:46.813Z,2.80
2022-08-14T20:10:59.612Z,2.80
2022-08-14T20:11:19.108Z,2.53
2022-08-14T20:14:23.695Z,2.60
2022-08-14T20:17:06.092Z,2.28
2022-08-14T20:19:37.298Z,2.42
2022-08-14T20:22:35.403Z,2.83
2022-08-14T20:25:10.980Z,2.92
2022-08-14T20:27:40.828Z,2.28
2022-08-14T20:30:29.569Z,2.72
2022-08-14T20:33:11.052Z,2.80
2022-08-14T20:35:38.577Z,2.60
2022-08-14T20:38:29.517Z,2.78
2022-08-14T20:41:06.866Z,2.85
2022-08-14T20:43:58.604Z,2.60
2022-08-14T20:46:33.649Z,2.85
2022-08-14T20:49:16.035Z,2.50
2022-08-14T20:51:58.690Z,2.58
2022-08-14T20:54:34.736Z,3.10
2022-08-14T20:57:09.302Z,2.92
2022-08-14T20:59:45.509Z,2.38
2022-08-14T21:02:34.550Z,2.45
2022-08-14T21:05:16.489Z,2.35
2022-08-14T21:07:50.702Z,2.90
2022-08-14T21:10:36.100Z,2.50
2022-08-14T21:16:03.372Z,2.75
2022-08-14T21:18:34.898Z,3.00
2022-08-14T21:21:07.597Z,2.75
2022-08-14T21:23:53.738Z,2.83
2022-08-14T21:26:52.724Z,3.20
2022-08-14T21:29:13.424Z,2.72
2022-08-14T21:31:41.587Z,7.15
2022-08-14T21:34:27.084Z,6.80
2022-08-14T21:36:58.801Z,5.90
2022-08-14T21:39:25.848Z,5.28
2022-08-14T21:41:58.825Z,4.28
2022-08-14T21:44:42.962Z,3.35
2022-08-14T21:47:12.945Z,2.88
2022-08-14T21:49:43.150Z,2.83
2022-08-14T21:52:49.890Z,2.90
2022-08-14T21:55:10.457Z,2.88
2022-08-14T21:58:03.803Z,2.65
2022-08-14T22:00:37.440Z,2.88
2022-08-14T22:03:10.729Z,3.00
2022-08-14T22:05:39.323Z,2.75
2022-08-14T22:08:12.100Z,3.05
2022-08-14T22:10:46.699Z,3.15
2022-08-14T22:13:16.959Z,3.08
2022-08-14T22:15:49.625Z,2.60
2022-08-14T22:18:21.179Z,2.90
2022-08-14T22:20:53.617Z,3.03
2022-08-14T22:23:23.113Z,3.08
2022-08-14T22:25:51.190Z,3.28
2022-08-14T22:28:25.561Z,2.92
2022-08-14T22:30:55.138Z,3.00
2022-08-14T22:33:31.161Z,3.20
2022-08-14T22:36:00.761Z,3.47
2022-08-14T22:38:37.740Z,2.70
2022-08-14T22:41:25.275Z,3.20
2022-08-14T22:43:59.081Z,2.70
2022-08-14T22:46:27.122Z,3.33
2022-08-14T22:48:55.513Z,3.33
2022-08-14T22:51:26.042Z,3.03
2022-08-14T22:53:58.186Z,3.38
2022-08-14T22:56:30.103Z,3.47
2022-08-14T22:59:00.326Z,3.10
2022-08-14T23:01:57.024Z,3.45
2022-08-14T23:04:35.060Z,3.30
2022-08-14T23:07:22.529Z,3.33
2022-08-14T23:09:57.521Z,3.40
2022-08-14T23:12:29.715Z,3.30
2022-08-14T23:14:59.251Z,3.22
2022-08-14T23:17:39.102Z,3.70
2022-08-14T23:20:19.223Z,3.60
2022-08-14T23:22:50.483Z,3.70
2022-08-14T23:25:50.014Z,3.08
2022-08-14T23:28:34.881Z,2.97
2022-08-14T23:30:55.582Z,3.05
2022-08-14T23:33:22.616Z,3.20
2022-08-14T23:35:59.469Z,3.45
2022-08-14T23:38:30.925Z,3.28
2022-08-14T23:41:00.820Z,3.55
2022-08-14T23:43:31.212Z,3.88
2022-08-14T23:45:58.849Z,4.25
2022-08-14T23:48:28.308Z,3.72
2022-08-14T23:50:56.252Z,3.08
2022-08-14T23:53:47.471Z,3.60
2022-08-14T23:56:31.760Z,3.88
2022-08-14T23:59:01.682Z,3.63
